Time;durP1;ratioP1;P1;durP2;ratioP2;P2;SDS_P1;SDS_P2;PMS_P1;PMS_P2;Temp;Humidity;BMP_temperature;BMP_pressure;BME280_temperature;BME280_humidity;BME280_pressure;Samples;Min_cycle;Max_cycle;Signal;HPM_P1;HPM_P2
2023/01/25 00:00:38;;;;;;;15.83;13.33;;;6.40;44.90;;;;;;10357562;28;20237;-76
2023/01/25 00:05:41;;;;;;;18.37;14.77;;;6.50;44.90;;;;;;10342678;28;20238;-76
2023/01/25 00:10:51;;;;;;;15.20;13.60;;;6.40;44.80;;;;;;10308740;28;20231;-77
2023/01/25 00:15:54;;;;;;;15.87;14.17;;;6.40;45.30;;;;;;10305690;28;20969;-76
2023/01/25 00:20:57;;;;;;;16.37;14.60;;;6.40;44.90;;;;;;10304893;28;20238;-77
2023/01/25 00:26:01;;;;;;;16.50;14.27;;;6.40;44.90;;;;;;10302434;28;20239;-76
2023/01/25 00:31:07;;;;;;;18.03;15.17;;;6.40;45.10;;;;;;10299534;28;20227;-76
2023/01/25 00:36:39;;;;;;;16.90;14.87;;;6.40;45.00;;;;;;10301979;28;20599;-76
2023/01/25 00:41:44;;;;;;;15.90;13.63;;;6.40;45.40;;;;;;10298381;28;20243;-76
2023/01/25 00:46:48;;;;;;;16.77;14.80;;;6.40;45.10;;;;;;10301264;28;20715;-76
2023/01/25 00:51:52;;;;;;;16.87;15.13;;;6.40;45.00;;;;;;10298212;28;20731;-76
2023/01/25 00:56:56;;;;;;;17.00;14.37;;;6.40;45.10;;;;;;10300511;28;20243;-76
2023/01/25 01:02:00;;;;;;;18.60;15.90;;;6.40;45.10;;;;;;10294233;28;20238;-76
2023/01/25 01:07:03;;;;;;;15.93;13.70;;;6.40;45.10;;;;;;10296088;28;20948;-76
2023/01/25 01:12:08;;;;;;;17.87;15.03;;;6.40;45.10;;;;;;10297115;28;20227;-76
2023/01/25 01:17:11;;;;;;;17.23;14.93;;;6.40;45.10;;;;;;10301276;28;20327;-76
2023/01/25 01:22:14;;;;;;;17.13;14.87;;;6.40;45.10;;;;;;10297498;28;20736;-76
2023/01/25 01:27:18;;;;;;;16.87;12.93;;;6.40;45.20;;;;;;10301498;28;20235;-76
2023/01/25 01:32:22;;;;;;;15.57;13.40;;;6.40;45.30;;;;;;10305734;28;20249;-76
2023/01/25 01:37:25;;;;;;;15.37;13.50;;;6.40;45.00;;;;;;10298385;28;20647;-77
2023/01/25 01:42:29;;;;;;;13.40;12.00;;;6.40;44.80;;;;;;10304465;28;20707;-76
2023/01/25 01:47:44;;;;;;;13.83;12.40;;;6.30;44.80;;;;;;10295954;28;20901;-76
2023/01/25 01:52:48;;;;;;;14.13;12.07;;;6.30;45.10;;;;;;10300522;28;20263;-76
2023/01/25 01:57:57;;;;;;;14.60;12.53;;;6.30;44.90;;;;;;10292708;28;20626;-77
2023/01/25 02:03:01;;;;;;;15.47;13.27;;;6.30;45.10;;;;;;10298503;28;20715;-76
2023/01/25 02:08:07;;;;;;;14.17;12.67;;;6.50;45.20;;;;;;10294131;28;20604;-76
2023/01/25 02:13:12;;;;;;;16.13;14.43;;;6.30;45.10;;;;;;10296163;28;20235;-76
2023/01/25 02:18:17;;;;;;;16.83;13.43;;;6.40;45.20;;;;;;10289930;28;20289;-77
2023/01/25 02:23:29;;;;;;;15.33;13.73;;;6.40;45.10;;;;;;10297437;28;20294;-76
2023/01/25 02:28:39;;;;;;;16.17;14.23;;;6.40;45.20;;;;;;10297828;28;20713;-76
2023/01/25 02:33:42;;;;;;;14.03;12.53;;;6.40;45.10;;;;;;10294577;28;20244;-76
2023/01/25 02:38:49;;;;;;;15.37;13.67;;;6.40;44.90;;;;;;10292552;28;20250;-76
2023/01/25 02:43:54;;;;;;;16.87;14.13;;;6.40;45.00;;;;;;10296222;28;20222;-76
2023/01/25 02:48:58;;;;;;;14.73;12.43;;;6.40;45.00;;;;;;10298745;28;20238;-77
2023/01/25 02:54:04;;;;;;;13.80;12.30;;;6.40;45.00;;;;;;10303715;28;21063;-74
2023/01/25 02:59:09;;;;;;;14.73;13.13;;;6.40;44.80;;;;;;10294585;28;20228;-76
2023/01/25 03:04:12;;;;;;;14.03;11.83;;;6.30;44.70;;;;;;10298658;28;20247;-76
2023/01/25 03:09:15;;;;;;;13.30;11.70;;;6.30;44.60;;;;;;10298030;28;20229;-75
2023/01/25 03:14:20;;;;;;;14.10;12.60;;;6.20;44.70;;;;;;10297608;28;20235;-76
2023/01/25 03:19:23;;;;;;;13.20;11.80;;;6.10;44.70;;;;;;10310150;28;20232;-76
2023/01/25 03:24:26;;;;;;;13.47;12.07;;;6.10;44.80;;;;;;10309250;28;20236;-76
2023/01/25 03:29:32;;;;;;;14.20;12.43;;;6.00;45.00;;;;;;10306165;28;20247;-76
2023/01/25 03:34:35;;;;;;;12.73;11.43;;;6.10;45.10;;;;;;10299440;28;20220;-76
2023/01/25 03:39:38;;;;;;;13.43;11.77;;;6.10;44.90;;;;;;10302407;28;20238;-76
2023/01/25 03:44:43;;;;;;;12.70;11.07;;;6.00;44.70;;;;;;10302951;28;20711;-76
2023/01/25 03:49:46;;;;;;;12.70;10.93;;;6.10;44.90;;;;;;10302837;28;20246;-76
2023/01/25 03:54:49;;;;;;;13.43;12.00;;;6.10;44.80;;;;;;10308346;28;20655;-76
2023/01/25 03:59:53;;;;;;;12.97;11.30;;;6.10;44.80;;;;;;10302016;28;20247;-76
2023/01/25 04:04:56;;;;;;;13.87;12.33;;;6.10;44.80;;;;;;10303794;28;20965;-76
2023/01/25 04:09:59;;;;;;;15.63;12.80;;;6.10;44.70;;;;;;10296373;28;20235;-76
2023/01/25 04:15:04;;;;;;;13.53;11.93;;;6.10;44.70;;;;;;10303794;28;20703;-75
2023/01/25 04:20:09;;;;;;;14.20;12.53;;;6.10;44.70;;;;;;10302063;28;20597;-75
2023/01/25 04:25:12;;;;;;;13.83;12.33;;;6.10;44.60;;;;;;10298227;28;20242;-76
2023/01/25 04:30:17;;;;;;;13.77;11.67;;;6.20;44.60;;;;;;10304197;28;20227;-76
2023/01/25 04:35:20;;;;;;;13.00;11.70;;;6.10;44.70;;;;;;10298281;28;20255;-76
2023/01/25 04:40:24;;;;;;;15.03;12.63;;;6.10;44.60;;;;;;10300136;28;20282;-76
2023/01/25 04:45:28;;;;;;;13.67;12.13;;;6.10;44.50;;;;;;10303880;28;20746;-76
2023/01/25 04:50:32;;;;;;;14.43;12.93;;;6.10;44.60;;;;;;10298806;28;20230;-76
2023/01/25 04:55:35;;;;;;;14.27;12.53;;;6.10;44.70;;;;;;10299543;28;20236;-76
2023/01/25 05:00:39;;;;;;;14.37;12.53;;;6.00;44.50;;;;;;10300273;28;20608;-76
2023/01/25 05:05:46;;;;;;;12.40;11.10;;;6.00;44.60;;;;;;10305628;28;21010;-76
2023/01/25 05:10:49;;;;;;;12.40;11.00;;;6.00;44.50;;;;;;10306794;28;20322;-76
2023/01/25 05:15:56;;;;;;;12.90;11.33;;;5.90;44.30;;;;;;10300389;28;20267;-77
2023/01/25 05:20:59;;;;;;;12.43;11.20;;;5.90;44.60;;;;;;10298288;28;20227;-76
2023/01/25 05:31:24;;;;;;;11.27;10.07;;;5.80;44.30;;;;;;10297319;28;20313;-76
2023/01/25 05:36:27;;;;;;;12.70;11.23;;;5.80;44.50;;;;;;10300187;28;20231;-74
2023/01/25 05:41:31;;;;;;;14.23;12.73;;;5.70;44.50;;;;;;10298831;28;20727;-77
2023/01/25 05:46:35;;;;;;;13.67;12.27;;;5.70;44.60;;;;;;10299926;28;20231;-76
2023/01/25 05:51:38;;;;;;;14.23;12.73;;;5.60;44.80;;;;;;10304500;28;20273;-76
2023/01/25 05:56:42;;;;;;;13.43;11.97;;;5.60;44.90;;;;;;10296152;28;20242;-77
2023/01/25 06:01:47;;;;;;;13.67;12.07;;;5.50;44.80;;;;;;10304422;28;20227;-76
2023/01/25 06:06:50;;;;;;;14.83;12.97;;;5.50;44.80;;;;;;10300619;28;20238;-76
2023/01/25 06:11:53;;;;;;;15.30;13.40;;;5.50;44.70;;;;;;10295039;28;20231;-76
2023/01/25 06:16:58;;;;;;;15.97;13.60;;;5.50;44.70;;;;;;10300057;28;20231;-74
2023/01/25 06:22:01;;;;;;;14.50;13.00;;;5.40;44.90;;;;;;10293258;28;20218;-75
2023/01/25 06:27:04;;;;;;;17.73;12.90;;;5.40;45.90;;;;;;10296599;28;20262;-78
2023/01/25 06:32:08;;;;;;;15.20;12.97;;;5.50;45.40;;;;;;10303962;28;20306;-76
2023/01/25 06:37:12;;;;;;;14.47;12.87;;;5.50;45.20;;;;;;10287984;28;20601;-69
2023/01/25 06:42:15;;;;;;;15.13;12.93;;;5.50;45.10;;;;;;10290664;28;20238;-69
2023/01/25 06:47:20;;;;;;;15.53;12.80;;;5.50;44.90;;;;;;10288979;28;20235;-69
2023/01/25 06:52:23;;;;;;;16.13;12.77;;;5.50;45.00;;;;;;10300781;28;20231;-68
2023/01/25 06:57:28;;;;;;;15.37;13.17;;;5.50;45.00;;;;;;10301295;28;20510;-76
2023/01/25 07:02:32;;;;;;;14.73;13.13;;;5.40;44.90;;;;;;10289314;28;20230;-69
2023/01/25 07:07:36;;;;;;;16.40;12.77;;;5.40;45.00;;;;;;10296058;28;20325;-70
2023/01/25 07:12:39;;;;;;;15.03;13.43;;;5.50;45.00;;;;;;10295767;28;21059;-69
2023/01/25 07:17:43;;;;;;;14.03;12.07;;;5.50;44.90;;;;;;10297808;28;21238;-68
2023/01/25 07:22:46;;;;;;;16.47;13.73;;;5.40;44.90;;;;;;10292656;28;20223;-69
2023/01/25 07:27:50;;;;;;;16.77;14.80;;;5.40;44.90;;;;;;10292332;28;20416;-69
2023/01/25 07:32:54;;;;;;;16.40;13.73;;;5.40;45.00;;;;;;10291976;28;20219;-72
2023/01/25 07:37:57;;;;;;;14.90;13.23;;;5.40;45.20;;;;;;10290997;28;20718;-72
2023/01/25 07:43:00;;;;;;;15.93;13.63;;;5.50;45.20;;;;;;10289123;28;20232;-72
2023/01/25 07:48:08;;;;;;;15.17;12.33;;;5.50;45.00;;;;;;10294288;28;20711;-72
2023/01/25 07:53:12;;;;;;;14.73;12.67;;;5.50;44.90;;;;;;10291646;28;20227;-72
2023/01/25 07:58:16;;;;;;;14.37;12.43;;;5.40;44.70;;;;;;10283726;28;20231;-72
2023/01/25 08:03:21;;;;;;;15.80;12.40;;;5.30;44.70;;;;;;10288069;28;20227;-72
2023/01/25 08:08:24;;;;;;;13.90;11.90;;;5.20;44.70;;;;;;10293677;28;20703;-72
2023/01/25 08:13:27;;;;;;;13.80;11.83;;;5.20;44.90;;;;;;10295042;28;20739;-72
2023/01/25 08:18:32;;;;;;;13.60;11.93;;;5.10;45.00;;;;;;10292514;28;20653;-72
2023/01/25 08:23:37;;;;;;;16.10;12.93;;;5.10;45.20;;;;;;10297648;28;20235;-71
2023/01/25 08:28:41;;;;;;;14.10;11.87;;;5.10;45.00;;;;;;10302499;28;20632;-72
2023/01/25 08:33:46;;;;;;;14.33;12.27;;;5.10;45.00;;;;;;10302363;28;20242;-72
2023/01/25 08:38:54;;;;;;;14.57;12.07;;;5.10;45.20;;;;;;10297635;28;20756;-72
2023/01/25 08:43:58;;;;;;;14.33;11.57;;;5.10;45.40;;;;;;10304136;28;20633;-72
2023/01/25 08:49:03;;;;;;;14.17;11.67;;;5.10;45.30;;;;;;10304812;28;20792;-72
2023/01/25 08:54:07;;;;;;;13.07;11.33;;;5.20;45.40;;;;;;10299647;28;20684;-72
2023/01/25 08:59:12;;;;;;;12.43;10.83;;;5.30;46.00;;;;;;10296638;28;20219;-72
2023/01/25 09:04:17;;;;;;;15.83;11.27;;;5.30;45.40;;;;;;10301009;28;20227;-72
2023/01/25 09:09:21;;;;;;;15.40;12.80;;;5.40;45.50;;;;;;10300108;28;20736;-72
2023/01/25 09:14:24;;;;;;;16.60;13.37;;;5.50;45.20;;;;;;10301548;28;20235;-72
2023/01/25 09:19:29;;;;;;;16.43;13.13;;;5.50;45.20;;;;;;10299963;28;20234;-72
2023/01/25 09:24:33;;;;;;;17.53;13.70;;;5.60;45.10;;;;;;10296936;28;20297;-72
2023/01/25 09:29:39;;;;;;;17.03;13.87;;;5.60;44.90;;;;;;10298484;28;20223;-72
2023/01/25 09:34:49;;;;;;;17.33;13.83;;;5.70;44.90;;;;;;10298857;28;20251;-72
2023/01/25 09:39:53;;;;;;;19.70;15.43;;;5.70;44.90;;;;;;10296866;28;20538;-72
2023/01/25 09:45:08;;;;;;;18.30;14.97;;;5.70;44.90;;;;;;10297966;28;20254;-72
2023/01/25 09:50:32;;;;;;;18.50;14.47;;;5.70;44.90;;;;;;10286656;28;20226;-72
2023/01/25 09:55:36;;;;;;;18.80;14.23;;;5.70;44.90;;;;;;10293358;28;20231;-72
2023/01/25 10:00:46;;;;;;;18.43;14.23;;;5.70;44.80;;;;;;10287021;28;20231;-72
2023/01/25 10:05:54;;;;;;;17.33;14.43;;;5.70;44.90;;;;;;10297606;28;20272;-72
2023/01/25 10:11:04;;;;;;;18.47;14.33;;;5.70;44.80;;;;;;10298737;28;20310;-72
2023/01/25 10:16:15;;;;;;;19.90;14.43;;;5.70;44.60;;;;;;10295606;28;20219;-72
2023/01/25 10:21:34;;;;;;;17.43;14.23;;;5.70;44.90;;;;;;10294350;28;20232;-73
2023/01/25 10:26:41;;;;;;;16.27;12.67;;;5.70;44.80;;;;;;10301315;28;20238;-72
2023/01/25 10:31:49;;;;;;;17.70;12.37;;;5.70;44.70;;;;;;10292604;28;20235;-72
2023/01/25 10:36:55;;;;;;;16.27;12.07;;;5.70;44.70;;;;;;10299006;28;20318;-72
2023/01/25 10:42:03;;;;;;;17.07;13.33;;;5.70;44.90;;;;;;10298296;28;20246;-72
2023/01/25 10:47:15;;;;;;;17.90;13.53;;;5.70;44.90;;;;;;10298133;28;20708;-72
2023/01/25 10:52:22;;;;;;;15.33;12.77;;;5.70;45.00;;;;;;10302751;28;20619;-72
2023/01/25 10:57:25;;;;;;;17.77;13.27;;;5.70;44.80;;;;;;10295955;28;20237;-76
2023/01/25 11:02:40;;;;;;;17.27;13.53;;;5.70;44.70;;;;;;10302669;28;20231;-71
2023/01/25 11:07:46;;;;;;;16.47;13.27;;;5.70;44.80;;;;;;10302444;28;20238;-72
2023/01/25 11:12:49;;;;;;;16.87;12.83;;;5.70;44.80;;;;;;10305922;28;20788;-72
2023/01/25 11:18:05;;;;;;;15.40;12.73;;;5.80;44.80;;;;;;10305422;28;20902;-72
2023/01/25 11:23:22;;;;;;;17.83;13.63;;;5.80;44.80;;;;;;10297863;28;20935;-74
2023/01/25 11:28:25;;;;;;;15.87;13.00;;;5.80;44.90;;;;;;10299548;28;20242;-72
2023/01/25 11:33:31;;;;;;;17.23;12.47;;;5.70;44.90;;;;;;10310995;28;20227;-76
2023/01/25 11:38:37;;;;;;;19.43;14.40;;;5.80;45.20;;;;;;10316064;28;20232;-75
2023/01/25 11:44:00;;;;;;;16.77;12.87;;;5.80;45.30;;;;;;10308946;28;20234;-75
2023/01/25 11:49:14;;;;;;;18.83;15.43;;;5.90;45.40;;;;;;10310457;28;20241;-75
2023/01/25 11:54:45;;;;;;;17.13;14.47;;;5.90;45.00;;;;;;10305886;28;20935;-75
2023/01/25 12:00:04;;;;;;;21.10;15.73;;;6.00;45.00;;;;;;10297276;28;20223;-69
2023/01/25 12:05:24;;;;;;;17.63;13.33;;;6.00;45.20;;;;;;10298552;28;20255;-69
2023/01/25 12:10:39;;;;;;;18.53;14.63;;;6.00;44.90;;;;;;10296357;28;20227;-69
2023/01/25 12:16:02;;;;;;;19.93;14.87;;;6.00;44.70;;;;;;10275728;28;20946;-69
2023/01/25 12:21:13;;;;;;;17.53;13.27;;;6.00;44.50;;;;;;10279139;28;20318;-76
2023/01/25 12:26:43;;;;;;;18.40;14.70;;;6.00;44.70;;;;;;10289473;28;20322;-69
2023/01/25 12:31:52;;;;;;;18.60;14.23;;;6.00;44.80;;;;;;10285238;28;20298;-69
2023/01/25 12:37:00;;;;;;;16.93;13.63;;;6.00;44.80;;;;;;10281774;28;20231;-75
2023/01/25 12:42:12;;;;;;;16.10;12.80;;;6.00;44.70;;;;;;10288920;28;20853;-75
2023/01/25 12:47:22;;;;;;;19.30;14.80;;;6.00;44.60;;;;;;10285440;28;20318;-77
2023/01/25 12:52:30;;;;;;;19.63;14.47;;;6.00;44.60;;;;;;10290575;28;20654;-77
2023/01/25 12:57:41;;;;;;;18.93;14.07;;;6.00;44.30;;;;;;10288593;28;20227;-70
2023/01/25 13:03:08;;;;;;;20.20;14.77;;;6.00;44.30;;;;;;10288070;28;20319;-71
2023/01/25 13:08:21;;;;;;;16.50;13.33;;;5.90;44.40;;;;;;10281469;28;20243;-68
2023/01/25 13:13:35;;;;;;;17.33;12.97;;;5.80;44.40;;;;;;10291389;28;20227;-68
2023/01/25 13:18:41;;;;;;;16.47;13.10;;;5.80;45.80;;;;;;10285952;28;20236;-68
2023/01/25 13:23:46;;;;;;;18.63;15.47;;;5.80;45.50;;;;;;10298107;28;20712;-68
2023/01/25 13:28:53;;;;;;;19.00;14.50;;;5.70;44.70;;;;;;10287592;28;20235;-67
2023/01/25 13:33:58;;;;;;;18.50;13.90;;;5.70;45.00;;;;;;10285569;28;20222;-70
2023/01/25 13:39:02;;;;;;;22.93;17.13;;;5.70;45.10;;;;;;10283488;28;20778;-69
2023/01/25 13:44:28;;;;;;;18.33;15.23;;;5.80;45.40;;;;;;10293562;28;20240;-68
2023/01/25 13:49:36;;;;;;;19.40;14.93;;;5.80;45.20;;;;;;10294499;28;20356;-69
2023/01/25 13:54:43;;;;;;;17.10;14.17;;;5.90;45.10;;;;;;10295781;28;20629;-69
2023/01/25 13:59:48;;;;;;;17.37;13.90;;;6.00;44.80;;;;;;10295481;28;20231;-69
2023/01/25 14:04:58;;;;;;;18.70;14.80;;;6.00;44.80;;;;;;10295300;28;20227;-73
2023/01/25 14:10:04;;;;;;;15.03;12.30;;;6.00;44.70;;;;;;10305410;28;20228;-74
2023/01/25 14:15:22;;;;;;;16.77;13.10;;;6.10;44.50;;;;;;10300377;28;20773;-73
2023/01/25 14:20:26;;;;;;;17.57;13.67;;;6.00;44.40;;;;;;10302009;28;20231;-73
2023/01/25 14:25:29;;;;;;;17.27;14.23;;;6.10;44.50;;;;;;10300898;28;20604;-74
2023/01/25 14:30:35;;;;;;;16.30;12.70;;;6.10;44.40;;;;;;10296889;28;20226;-73
2023/01/25 14:35:41;;;;;;;18.30;14.50;;;6.00;44.40;;;;;;10298661;28;20338;-73
2023/01/25 14:41:00;;;;;;;19.60;14.60;;;6.00;44.50;;;;;;10300450;28;20227;-73
2023/01/25 14:46:24;;;;;;;16.53;13.93;;;6.10;44.50;;;;;;10297265;28;20234;-73
2023/01/25 14:51:29;;;;;;;16.63;13.40;;;6.10;44.20;;;;;;10295134;28;20223;-69
2023/01/25 14:56:40;;;;;;;17.60;13.83;;;6.00;44.00;;;;;;10294729;28;20751;-69
2023/01/25 15:01:44;;;;;;;17.90;13.93;;;5.80;44.00;;;;;;10289538;28;20234;-69
2023/01/25 15:06:49;;;;;;;19.13;15.27;;;5.70;44.40;;;;;;10292606;28;20223;-68
2023/01/25 15:11:59;;;;;;;15.20;12.67;;;5.60;44.60;;;;;;10299384;28;20559;-68
2023/01/25 15:17:03;;;;;;;18.33;14.90;;;5.70;44.90;;;;;;10305244;28;20230;-69
2023/01/25 15:22:08;;;;;;;17.30;14.27;;;5.70;44.90;;;;;;10301169;28;20235;-69
2023/01/25 15:27:12;;;;;;;18.13;13.80;;;5.80;44.60;;;;;;10305148;28;20243;-74
2023/01/25 15:32:20;;;;;;;16.73;12.67;;;5.80;44.60;;;;;;10311903;28;20590;-74
2023/01/25 15:37:23;;;;;;;19.93;15.30;;;5.80;44.60;;;;;;10307559;28;20230;-71
2023/01/25 15:42:27;;;;;;;19.13;14.50;;;5.80;44.50;;;;;;10303468;28;20573;-71
2023/01/25 15:47:33;;;;;;;18.30;14.00;;;5.80;44.50;;;;;;10296048;28;20227;-70
2023/01/25 15:52:36;;;;;;;17.17;13.97;;;5.80;44.70;;;;;;10300614;28;20227;-70
2023/01/25 15:57:40;;;;;;;17.67;13.50;;;5.80;44.70;;;;;;10294904;28;20226;-70
2023/01/25 16:02:44;;;;;;;18.57;13.27;;;5.80;44.70;;;;;;10300842;28;20227;-70
2023/01/25 16:07:47;;;;;;;17.13;13.40;;;5.80;44.60;;;;;;10302659;28;20237;-71
2023/01/25 16:12:51;;;;;;;17.40;14.23;;;5.90;44.70;;;;;;10299182;28;20603;-70
2023/01/25 16:17:56;;;;;;;18.57;15.00;;;5.90;44.50;;;;;;10300533;28;20223;-69
2023/01/25 16:23:00;;;;;;;15.67;13.03;;;5.90;44.40;;;;;;10297308;28;20606;-69
2023/01/25 16:28:03;;;;;;;16.80;13.60;;;5.90;44.50;;;;;;10297345;28;20227;-69
2023/01/25 16:33:07;;;;;;;16.10;13.23;;;5.90;44.50;;;;;;10299594;28;20713;-70
2023/01/25 16:38:11;;;;;;;19.07;13.03;;;5.90;44.50;;;;;;10302466;28;20305;-70
2023/01/25 16:43:14;;;;;;;19.27;14.43;;;5.90;44.30;;;;;;10295591;28;20634;-70
2023/01/25 16:48:20;;;;;;;17.83;13.67;;;6.00;44.40;;;;;;10303212;28;20707;-70
2023/01/25 16:53:23;;;;;;;17.60;13.40;;;5.90;44.10;;;;;;10295222;28;20227;-70
2023/01/25 16:58:26;;;;;;;16.60;13.07;;;5.80;44.00;;;;;;10295765;28;20289;-74
2023/01/25 17:03:31;;;;;;;12.37;10.23;;;5.80;44.30;;;;;;10301045;28;20230;-74
2023/01/25 17:08:34;;;;;;;17.53;13.40;;;5.70;44.50;;;;;;10312179;28;20238;-74
2023/01/25 17:13:37;;;;;;;17.97;14.03;;;5.70;44.50;;;;;;10308073;28;20304;-74
2023/01/25 17:18:42;;;;;;;17.57;13.70;;;5.70;44.30;;;;;;10303015;28;20245;-74
2023/01/25 17:23:45;;;;;;;16.30;12.53;;;5.60;44.10;;;;;;10303897;28;20616;-74
2023/01/25 17:28:48;;;;;;;15.33;12.27;;;5.50;44.20;;;;;;10306250;28;20258;-74
2023/01/25 17:33:54;;;;;;;14.83;11.73;;;5.50;44.40;;;;;;10298148;28;20230;-74
2023/01/25 17:39:01;;;;;;;14.77;11.83;;;5.40;44.20;;;;;;10315585;28;20250;-74
2023/01/25 17:44:04;;;;;;;16.93;13.47;;;5.40;44.40;;;;;;10308986;28;20238;-73
2023/01/25 17:49:12;;;;;;;18.13;15.10;;;5.40;44.60;;;;;;10306444;28;20231;-73
2023/01/25 17:54:15;;;;;;;18.63;15.20;;;5.40;44.50;;;;;;10292632;28;20234;-71
2023/01/25 17:59:18;;;;;;;15.27;11.90;;;5.40;44.30;;;;;;10284735;28;20226;-71
2023/01/25 18:04:24;;;;;;;16.87;12.90;;;5.30;44.40;;;;;;10285876;28;20923;-71
2023/01/25 18:09:28;;;;;;;13.23;11.13;;;5.20;44.60;;;;;;10288556;28;20325;-71
2023/01/25 18:14:32;;;;;;;17.37;12.93;;;5.30;44.70;;;;;;10283813;28;20235;-71
2023/01/25 18:19:36;;;;;;;16.50;13.33;;;5.30;44.70;;;;;;10291629;28;20258;-71
2023/01/25 18:24:41;;;;;;;16.23;12.73;;;5.30;44.80;;;;;;10294159;28;20231;-72
2023/01/25 18:29:47;;;;;;;14.43;11.57;;;5.40;45.00;;;;;;10287694;28;20242;-70
2023/01/25 18:34:51;;;;;;;15.13;12.00;;;5.40;44.90;;;;;;10294864;28;20231;-70
2023/01/25 18:39:56;;;;;;;14.97;11.83;;;5.50;44.90;;;;;;10288981;28;20769;-70
2023/01/25 18:44:59;;;;;;;15.73;11.63;;;5.50;44.70;;;;;;10292933;28;20243;-70
2023/01/25 18:50:04;;;;;;;17.63;15.10;;;5.60;44.60;;;;;;10299329;28;20258;-71
2023/01/25 18:55:07;;;;;;;16.57;13.60;;;5.60;44.70;;;;;;10297057;28;20242;-69
2023/01/25 19:00:13;;;;;;;15.67;12.20;;;5.60;44.70;;;;;;10300498;28;20246;-69
2023/01/25 19:05:19;;;;;;;16.97;12.00;;;5.60;44.70;;;;;;10294190;28;20231;-69
2023/01/25 19:10:22;;;;;;;15.17;11.50;;;5.60;44.70;;;;;;10295228;28;20227;-69
2023/01/25 19:15:26;;;;;;;18.50;13.03;;;5.60;44.70;;;;;;10300342;28;20235;-69
2023/01/25 19:20:30;;;;;;;15.67;11.63;;;5.70;44.70;;;;;;10296794;28;20239;-69
2023/01/25 19:25:33;;;;;;;13.53;10.53;;;5.70;44.60;;;;;;10301939;28;20227;-72
2023/01/25 19:30:37;;;;;;;13.10;10.00;;;5.70;44.40;;;;;;10306767;28;20350;-72
2023/01/25 19:35:42;;;;;;;15.20;11.87;;;5.60;44.20;;;;;;10297279;28;20233;-70
2023/01/25 19:40:45;;;;;;;14.03;10.50;;;5.60;44.20;;;;;;10305482;28;20742;-69
2023/01/25 19:45:49;;;;;;;14.93;11.47;;;5.50;44.40;;;;;;10305864;28;20250;-69
2023/01/25 19:50:53;;;;;;;14.37;10.67;;;5.40;44.40;;;;;;10302088;28;20590;-70
2023/01/25 19:56:01;;;;;;;13.17;9.73;;;5.40;45.10;;;;;;10303393;28;20235;-69
2023/01/25 20:01:06;;;;;;;12.67;10.10;;;5.30;44.20;;;;;;10301197;28;20235;-70
2023/01/25 20:06:14;;;;;;;10.73;9.03;;;5.20;44.30;;;;;;10301253;28;20631;-70
2023/01/25 20:11:20;;;;;;;10.03;7.53;;;5.20;44.70;;;;;;10302641;28;20669;-70
2023/01/25 20:16:24;;;;;;;20.07;13.57;;;5.20;44.60;;;;;;10303418;28;20236;-75
2023/01/25 20:21:29;;;;;;;15.23;10.03;;;5.20;44.70;;;;;;10301249;28;21037;-70
2023/01/25 20:26:36;;;;;;;12.00;9.43;;;5.20;44.50;;;;;;10295775;28;20234;-71
2023/01/25 20:31:40;;;;;;;11.13;8.47;;;5.20;44.30;;;;;;10296379;28;20223;-69
2023/01/25 20:36:46;;;;;;;11.13;8.73;;;5.10;44.30;;;;;;10297727;28;20227;-69
2023/01/25 20:41:52;;;;;;;10.43;8.33;;;5.00;44.20;;;;;;10296881;28;20581;-68
2023/01/25 20:46:55;;;;;;;12.23;9.50;;;5.10;44.40;;;;;;10293504;28;20585;-69
2023/01/25 20:52:00;;;;;;;18.57;12.07;;;5.00;44.40;;;;;;10296702;28;20228;-69
2023/01/25 20:57:03;;;;;;;12.30;9.50;;;5.10;44.60;;;;;;10296924;28;20235;-69
2023/01/25 21:02:09;;;;;;;10.70;8.77;;;5.10;44.50;;;;;;10298494;28;20326;-69
2023/01/25 21:07:14;;;;;;;10.07;8.83;;;5.10;44.60;;;;;;10304199;28;20322;-69
2023/01/25 21:12:17;;;;;;;8.73;7.23;;;5.10;44.70;;;;;;10299415;28;20226;-69
2023/01/25 21:17:20;;;;;;;10.97;8.77;;;5.10;44.50;;;;;;10298909;28;20233;-70
2023/01/25 21:22:27;;;;;;;13.00;9.57;;;5.20;44.40;;;;;;10297191;28;20231;-69
2023/01/25 21:27:30;;;;;;;10.93;8.47;;;5.20;44.30;;;;;;10295263;28;20301;-71
2023/01/25 21:32:34;;;;;;;10.73;8.17;;;5.20;44.20;;;;;;10302434;28;20234;-69
2023/01/25 21:37:38;;;;;;;8.13;7.30;;;5.10;44.00;;;;;;10297218;28;20239;-69
2023/01/25 21:42:42;;;;;;;11.57;8.10;;;5.10;44.10;;;;;;10294555;28;20223;-71
2023/01/25 21:47:45;;;;;;;9.00;7.20;;;5.00;44.20;;;;;;10297505;28;20230;-68
2023/01/25 21:52:50;;;;;;;11.30;7.97;;;5.00;44.30;;;;;;10300954;28;20712;-71
2023/01/25 21:57:53;;;;;;;10.63;8.40;;;5.00;44.20;;;;;;10297475;28;20235;-69
2023/01/25 22:02:56;;;;;;;11.27;7.50;;;5.00;44.30;;;;;;10299406;28;20223;-71
2023/01/25 22:08:01;;;;;;;9.73;7.70;;;4.90;44.20;;;;;;10293639;28;20269;-71
2023/01/25 22:13:04;;;;;;;8.87;6.67;;;4.90;44.30;;;;;;10293504;28;20243;-71
2023/01/25 22:18:07;;;;;;;10.13;7.53;;;4.80;44.50;;;;;;10302466;28;20223;-72
2023/01/25 22:23:12;;;;;;;10.00;7.63;;;4.80;44.60;;;;;;10300571;28;21131;-72
2023/01/25 22:28:19;;;;;;;10.57;8.07;;;4.80;44.50;;;;;;10291236;28;20593;-70
2023/01/25 22:33:22;;;;;;;9.23;7.47;;;4.90;44.70;;;;;;10292391;28;20240;-70
2023/01/25 22:38:27;;;;;;;7.63;6.70;;;4.90;44.60;;;;;;10293244;28;20282;-70
2023/01/25 22:43:30;;;;;;;7.03;5.80;;;4.90;44.60;;;;;;10293483;28;20277;-71
2023/01/25 22:48:34;;;;;;;9.30;7.23;;;5.00;44.60;;;;;;10294723;28;20228;-68
2023/01/25 22:53:39;;;;;;;8.93;7.73;;;5.00;44.50;;;;;;10297548;28;20251;-73
2023/01/25 22:58:44;;;;;;;8.67;7.63;;;5.00;44.40;;;;;;10299641;28;20800;-68
2023/01/25 23:03:48;;;;;;;9.93;8.13;;;5.00;44.50;;;;;;10292511;28;20218;-70
2023/01/25 23:08:54;;;;;;;9.60;7.73;;;5.10;44.40;;;;;;10295873;28;20234;-70
2023/01/25 23:19:15;;;;;;;11.20;8.00;;;5.10;44.20;;;;;;10265605;28;20231;-70
2023/01/25 23:24:20;;;;;;;9.97;8.07;;;5.10;44.10;;;;;;10293142;28;20234;-69
2023/01/25 23:29:23;;;;;;;9.77;7.97;;;5.10;44.10;;;;;;10297726;28;20290;-70
2023/01/25 23:34:27;;;;;;;10.37;8.50;;;5.20;44.30;;;;;;10300250;28;20236;-68
2023/01/25 23:39:31;;;;;;;10.77;8.60;;;5.20;44.30;;;;;;10304253;28;20227;-68
2023/01/25 23:44:34;;;;;;;10.00;7.40;;;5.20;44.30;;;;;;10300518;28;20238;-69
2023/01/25 23:49:37;;;;;;;9.07;8.10;;;5.20;44.30;;;;;;10302823;28;20236;-69
2023/01/25 23:54:42;;;;;;;10.97;8.23;;;5.20;44.30;;;;;;10302811;28;20231;-69
2023/01/25 23:59:45;;;;;;;18.80;15.00;;;5.30;44.40;;;;;;10301899;28;20739;-70
